createdAt,value
2023-04-14T00:00:07.859Z,3.20
2023-04-14T00:02:43.643Z,3.93
2023-04-14T00:05:12.400Z,3.53
2023-04-14T00:07:41.108Z,2.97
2023-04-14T00:10:10.753Z,3.20
2023-04-14T00:12:39.538Z,3.30
2023-04-14T00:15:09.947Z,3.30
2023-04-14T00:17:38.734Z,3.30
2023-04-14T00:20:11.934Z,3.90
2023-04-14T00:22:40.658Z,3.53
2023-04-14T00:25:10.229Z,3.90
2023-04-14T00:27:38.860Z,3.83
2023-04-14T00:30:09.212Z,3.73
2023-04-14T00:32:37.895Z,3.63
2023-04-14T00:35:07.447Z,3.70
2023-04-14T00:37:37.433Z,3.80
2023-04-14T00:40:07.882Z,3.90
2023-04-14T00:42:44.292Z,3.47
2023-04-14T00:45:13.726Z,3.47
2023-04-14T00:47:47.158Z,3.73
2023-04-14T00:50:17.043Z,3.57
2023-04-14T00:52:50.765Z,3.23
2023-04-14T00:55:21.335Z,3.30
2023-04-14T00:57:51.144Z,2.80
2023-04-14T01:00:20.354Z,3.00
2023-04-14T01:02:49.191Z,2.97
2023-04-14T01:05:21.007Z,3.20
2023-04-14T01:07:51.298Z,3.17
2023-04-14T01:10:20.382Z,3.30
2023-04-14T01:13:08.223Z,3.40
2023-04-14T01:15:44.334Z,3.30
2023-04-14T01:18:23.357Z,3.00
2023-04-14T01:20:58.481Z,3.07
2023-04-14T01:23:34.784Z,2.83
2023-04-14T01:26:28.271Z,3.10
2023-04-14T01:29:46.095Z,3.03
2023-04-14T01:32:37.755Z,2.60
2023-04-14T01:35:14.212Z,3.00
2023-04-14T01:37:49.218Z,3.70
2023-04-14T01:40:20.147Z,3.80
2023-04-14T01:42:59.567Z,3.63
2023-04-14T01:45:35.225Z,3.80
2023-04-14T01:48:06.544Z,3.53
2023-04-14T01:50:37.284Z,3.53
2023-04-14T01:53:08.379Z,3.40
2023-04-14T01:55:39.372Z,3.40
2023-04-14T01:58:10.709Z,3.23
2023-04-14T02:00:41.916Z,3.17
2023-04-14T02:03:13.124Z,3.87
2023-04-14T02:05:43.769Z,3.60
2023-04-14T02:08:15.399Z,3.80
2023-04-14T02:10:48.357Z,4.33
2023-04-14T02:13:19.181Z,3.57
2023-04-14T02:15:49.218Z,3.57
2023-04-14T02:18:24.430Z,2.90
2023-04-14T02:20:55.427Z,2.67
2023-04-14T02:23:24.170Z,3.10
2023-04-14T02:25:58.811Z,2.53
2023-04-14T02:28:32.018Z,3.00
2023-04-14T02:31:06.422Z,3.13
2023-04-14T02:33:39.496Z,2.93
2023-04-14T02:36:15.373Z,2.67
2023-04-14T02:38:49.417Z,3.03
2023-04-14T02:41:25.268Z,3.73
2023-04-14T02:44:02.473Z,3.03
2023-04-14T02:46:39.024Z,3.13
2023-04-14T02:49:13.014Z,4.23
2023-04-14T02:51:45.152Z,4.23
2023-04-14T02:54:15.588Z,4.10
2023-04-14T02:56:49.012Z,3.77
2023-04-14T02:59:22.156Z,4.20
2023-04-14T03:02:02.143Z,4.10
2023-04-14T03:04:35.026Z,3.60
2023-04-14T03:07:09.166Z,3.60
2023-04-14T03:09:39.321Z,3.40
2023-04-14T03:12:09.652Z,3.17
2023-04-14T03:14:38.925Z,2.60
2023-04-14T03:17:08.829Z,3.00
2023-04-14T03:19:40.758Z,2.70
2023-04-14T03:22:12.059Z,2.93
2023-04-14T03:24:41.677Z,3.33
2023-04-14T03:27:15.102Z,2.97
2023-04-14T03:29:48.454Z,3.30
2023-04-14T03:32:19.257Z,2.93
2023-04-14T03:34:56.236Z,2.93
2023-04-14T03:37:27.513Z,2.70
2023-04-14T03:40:00.657Z,2.83
2023-04-14T03:42:31.389Z,2.70
2023-04-14T03:45:01.641Z,2.40
2023-04-14T03:47:32.698Z,3.10
2023-04-14T03:50:09.359Z,3.17
2023-04-14T03:52:41.701Z,3.30
2023-04-14T03:55:13.764Z,2.80
2023-04-14T03:57:45.732Z,2.63
2023-04-14T04:00:17.404Z,2.73
2023-04-14T04:02:50.064Z,3.07
2023-04-14T04:05:21.638Z,3.07
2023-04-14T04:07:52.130Z,3.10
2023-04-14T04:10:21.742Z,2.80
2023-04-14T04:12:51.973Z,2.90
2023-04-14T04:15:20.750Z,3.30
2023-04-14T04:17:52.329Z,3.50
2023-04-14T04:20:23.537Z,2.93
2023-04-14T04:22:56.870Z,3.17
2023-04-14T04:25:25.750Z,3.03
2023-04-14T04:28:03.247Z,2.83
2023-04-14T04:30:33.780Z,2.97
2023-04-14T04:33:04.736Z,3.20
2023-04-14T04:35:36.197Z,3.10
2023-04-14T04:38:26.260Z,2.57
2023-04-14T04:40:55.677Z,2.40
2023-04-14T04:43:27.855Z,2.30
2023-04-14T04:46:26.108Z,2.43
2023-04-14T04:48:56.757Z,1.93
2023-04-14T04:51:28.896Z,2.10
2023-04-14T04:53:58.890Z,2.07
2023-04-14T04:56:27.620Z,2.07
2023-04-14T04:58:56.411Z,2.17
2023-04-14T05:01:25.152Z,2.00
2023-04-14T05:03:53.881Z,2.10
2023-04-14T05:06:22.512Z,1.97
2023-04-14T05:08:54.298Z,2.07
2023-04-14T05:11:23.585Z,2.43
2023-04-14T05:13:52.140Z,2.50
2023-04-14T05:16:20.811Z,2.70
2023-04-14T05:18:49.479Z,2.33
2023-04-14T05:21:18.298Z,2.77
2023-04-14T05:23:47.997Z,2.53
2023-04-14T05:28:49.699Z,2.87
2023-04-14T05:31:18.360Z,2.93
2023-04-14T05:33:47.064Z,3.40
2023-04-14T05:36:15.717Z,3.40
2023-04-14T05:38:44.726Z,3.37
2023-04-14T05:41:13.323Z,3.20
2023-04-14T05:43:43.322Z,3.53
2023-04-14T05:46:11.931Z,3.50
2023-04-14T05:48:40.562Z,3.20
2023-04-14T05:51:09.162Z,3.30
2023-04-14T05:53:37.875Z,2.70
2023-04-14T05:56:07.246Z,2.80
2023-04-14T05:58:37.099Z,3.20
2023-04-14T06:01:10.795Z,3.00
2023-04-14T06:03:40.611Z,3.30
2023-04-14T06:06:09.835Z,3.10
2023-04-14T06:08:38.440Z,3.00
2023-04-14T06:11:07.288Z,3.03
2023-04-14T06:13:36.589Z,2.87
2023-04-14T06:16:07.582Z,2.50
2023-04-14T06:18:36.301Z,2.67
2023-04-14T06:21:05.551Z,2.70
2023-04-14T06:23:34.183Z,2.77
2023-04-14T06:26:03.624Z,2.67
2023-04-14T06:28:32.406Z,2.50
2023-04-14T06:31:01.466Z,2.80
2023-04-14T06:33:31.789Z,2.70
2023-04-14T06:36:00.531Z,2.47
2023-04-14T06:38:29.109Z,2.50
2023-04-14T06:40:57.751Z,2.30
2023-04-14T06:43:26.357Z,2.33
2023-04-14T06:45:55.049Z,2.43
2023-04-14T06:48:23.742Z,2.50
2023-04-14T06:50:57.819Z,2.77
2023-04-14T06:53:26.872Z,2.70
2023-04-14T06:56:00.640Z,2.77
2023-04-14T06:58:30.124Z,2.70
2023-04-14T07:00:59.669Z,2.63
2023-04-14T07:03:31.650Z,2.50
2023-04-14T07:06:11.670Z,2.90
2023-04-14T07:08:40.910Z,3.23
2023-04-14T07:11:11.781Z,3.03
2023-04-14T07:13:41.564Z,3.03
2023-04-14T07:16:10.293Z,3.03
2023-04-14T07:18:39.003Z,3.80
2023-04-14T07:21:09.106Z,2.93
2023-04-14T07:23:37.976Z,3.50
2023-04-14T07:26:07.391Z,3.27
2023-04-14T07:28:36.057Z,3.67
2023-04-14T07:31:10.059Z,3.53
2023-04-14T07:33:38.960Z,3.70
2023-04-14T07:36:09.929Z,4.00
2023-04-14T07:38:38.601Z,4.60
2023-04-14T07:41:08.413Z,4.20
2023-04-14T07:43:37.135Z,3.50
2023-04-14T07:46:07.628Z,3.70
2023-04-14T07:48:38.642Z,3.60
2023-04-14T07:51:09.163Z,3.87
2023-04-14T07:53:42.304Z,3.57
2023-04-14T07:56:11.360Z,3.63
2023-04-14T07:58:40.299Z,3.63
2023-04-14T08:01:09.259Z,4.20
2023-04-14T08:03:38.236Z,3.37
2023-04-14T08:06:09.240Z,3.20
2023-04-14T08:08:38.214Z,3.60
2023-04-14T08:11:07.027Z,3.83
2023-04-14T08:13:35.690Z,3.53
2023-04-14T08:16:04.583Z,3.20
2023-04-14T08:18:33.299Z,3.50
2023-04-14T08:21:02.000Z,3.10
2023-04-14T08:23:32.042Z,3.43
2023-04-14T08:26:00.718Z,3.47
2023-04-14T08:28:30.084Z,3.50
2023-04-14T08:30:58.740Z,3.60
2023-04-14T08:33:27.653Z,3.53
2023-04-14T08:36:00.123Z,3.40
2023-04-14T08:38:29.700Z,3.40
2023-04-14T08:41:02.953Z,3.10
2023-04-14T08:43:31.648Z,3.60
2023-04-14T08:46:02.081Z,4.20
2023-04-14T08:48:33.044Z,3.40
2023-04-14T08:51:09.020Z,3.33
2023-04-14T08:53:45.318Z,3.90
2023-04-14T08:56:19.604Z,4.03
2023-04-14T08:58:49.430Z,4.40
2023-04-14T09:01:19.263Z,3.97
2023-04-14T09:03:49.812Z,3.70
2023-04-14T09:06:19.819Z,3.47
2023-04-14T09:08:48.516Z,3.97
2023-04-14T09:11:18.704Z,3.80
2023-04-14T09:13:50.676Z,3.57
2023-04-14T09:16:21.012Z,3.40
2023-04-14T09:18:49.961Z,3.70
2023-04-14T09:21:27.719Z,3.72
2023-04-14T09:24:11.073Z,3.10
2023-04-14T09:26:42.779Z,2.95
2023-04-14T09:29:11.508Z,2.97
2023-04-14T09:31:40.474Z,2.90
2023-04-14T09:34:18.266Z,2.75
2023-04-14T09:37:03.584Z,3.55
2023-04-14T09:39:32.452Z,3.00
2023-04-14T09:42:03.160Z,3.25
2023-04-14T09:44:32.218Z,3.10
2023-04-14T09:47:02.926Z,2.72
2023-04-14T09:49:32.388Z,2.90
2023-04-14T09:52:08.723Z,2.95
2023-04-14T09:54:37.819Z,2.88
2023-04-14T09:57:07.903Z,2.35
2023-04-14T09:59:38.569Z,2.50
2023-04-14T10:02:09.366Z,3.03
2023-04-14T10:04:39.948Z,2.55
2023-04-14T10:07:09.093Z,2.67
2023-04-14T10:09:38.886Z,2.40
2023-04-14T10:12:14.259Z,2.05
2023-04-14T10:14:44.715Z,2.17
2023-04-14T10:17:13.740Z,2.17
2023-04-14T10:19:42.365Z,2.53
2023-04-14T10:22:11.656Z,2.50
2023-04-14T10:24:41.790Z,2.30
2023-04-14T10:27:12.358Z,2.30
2023-04-14T10:29:43.115Z,2.17
2023-04-14T10:32:16.036Z,2.25
2023-04-14T10:34:59.236Z,2.10
2023-04-14T10:37:27.901Z,2.10
2023-04-14T10:39:57.559Z,2.05
2023-04-14T10:42:28.843Z,2.10
2023-04-14T10:45:06.905Z,2.13
2023-04-14T10:47:36.612Z,1.95
2023-04-14T10:50:16.431Z,2.35
2023-04-14T10:52:52.159Z,2.30
2023-04-14T10:55:24.251Z,2.20
2023-04-14T10:58:05.090Z,2.05
2023-04-14T11:00:38.737Z,2.38
2023-04-14T11:03:11.592Z,2.30
2023-04-14T11:05:45.206Z,2.10
2023-04-14T11:08:15.941Z,2.10
2023-04-14T11:11:02.563Z,1.75
2023-04-14T11:13:34.127Z,2.10
2023-04-14T11:16:05.404Z,1.80
2023-04-14T11:18:37.286Z,2.00
2023-04-14T11:21:08.117Z,1.90
2023-04-14T11:23:38.570Z,2.03
2023-04-14T11:26:09.429Z,2.60
2023-04-14T11:28:41.684Z,1.98
2023-04-14T11:31:12.276Z,1.95
2023-04-14T11:33:42.923Z,2.22
2023-04-14T11:36:13.061Z,2.15
2023-04-14T11:38:41.758Z,2.28
2023-04-14T11:41:11.069Z,2.28
2023-04-14T11:43:46.514Z,2.17
2023-04-14T11:46:18.204Z,2.22
2023-04-14T11:48:46.880Z,1.90
2023-04-14T11:51:15.722Z,2.15
2023-04-14T11:53:44.378Z,1.88
2023-04-14T11:56:14.439Z,2.00
2023-04-14T11:58:44.498Z,1.73
2023-04-14T12:01:15.095Z,2.05
2023-04-14T12:03:44.139Z,1.77
2023-04-14T12:06:12.946Z,2.10
2023-04-14T12:08:41.598Z,2.05
2023-04-14T12:11:14.561Z,2.25
2023-04-14T12:13:46.674Z,2.05
2023-04-14T12:16:16.813Z,1.60
2023-04-14T12:18:46.243Z,2.13
2023-04-14T12:21:19.893Z,2.38
2023-04-14T12:23:49.897Z,2.28
2023-04-14T12:26:21.409Z,1.95
2023-04-14T12:28:58.874Z,2.30
2023-04-14T12:31:31.162Z,2.25
2023-04-14T12:34:04.260Z,1.90
2023-04-14T12:36:48.729Z,1.95
2023-04-14T12:39:18.739Z,1.85
2023-04-14T12:41:47.916Z,1.92
2023-04-14T12:44:20.638Z,1.98
2023-04-14T12:46:50.311Z,2.22
2023-04-14T12:49:34.819Z,1.90
2023-04-14T12:52:04.665Z,1.40
2023-04-14T12:54:52.974Z,2.00
2023-04-14T12:57:22.597Z,1.83
2023-04-14T12:59:53.141Z,1.90
2023-04-14T13:02:22.479Z,2.13
2023-04-14T13:04:51.400Z,1.80
2023-04-14T13:07:20.193Z,1.50
2023-04-14T13:09:48.808Z,1.87
2023-04-14T13:12:17.431Z,1.90
2023-04-14T13:14:46.107Z,1.77
2023-04-14T13:17:16.284Z,2.35
2023-04-14T13:19:45.011Z,2.13
2023-04-14T13:22:14.031Z,2.00
2023-04-14T13:24:42.640Z,1.80
2023-04-14T13:27:11.664Z,1.70
2023-04-14T13:29:42.155Z,1.73
2023-04-14T13:32:11.290Z,1.63
2023-04-14T13:34:44.007Z,2.08
2023-04-14T13:37:12.634Z,1.90
2023-04-14T13:39:41.383Z,2.10
2023-04-14T13:42:10.015Z,1.83
2023-04-14T13:44:38.715Z,2.17
2023-04-14T13:47:07.431Z,1.70
2023-04-14T13:49:36.291Z,1.97
2023-04-14T13:52:07.058Z,1.83
2023-04-14T13:54:36.386Z,1.70
2023-04-14T13:57:05.075Z,1.97
2023-04-14T13:59:34.226Z,2.30
2023-04-14T14:02:02.993Z,1.57
2023-04-14T14:04:31.852Z,1.90
2023-04-14T14:07:01.550Z,1.73
2023-04-14T14:09:31.618Z,2.03
2023-04-14T14:12:00.221Z,1.42
2023-04-14T14:14:28.890Z,1.57
2023-04-14T14:16:57.641Z,2.00
2023-04-14T14:19:26.570Z,2.37
2023-04-14T14:21:55.171Z,1.77
2023-04-14T14:24:23.810Z,1.90
2023-04-14T14:26:53.782Z,2.60
2023-04-14T14:29:22.438Z,1.70
2023-04-14T14:31:51.476Z,1.90
2023-04-14T14:34:20.580Z,2.00
2023-04-14T14:36:49.377Z,1.87
2023-04-14T14:39:18.555Z,1.70
2023-04-14T14:41:47.404Z,1.63
2023-04-14T14:44:17.520Z,1.80
2023-04-14T14:46:47.315Z,2.00
2023-04-14T14:49:16.008Z,1.73
2023-04-14T14:51:44.810Z,1.90
2023-04-14T14:54:13.639Z,1.63
2023-04-14T14:56:42.528Z,2.17
2023-04-14T14:59:11.176Z,1.90
2023-04-14T15:01:41.189Z,1.60
2023-04-14T15:04:10.590Z,1.80
2023-04-14T15:06:39.335Z,2.00
2023-04-14T15:09:08.077Z,1.90
2023-04-14T15:11:36.750Z,1.50
2023-04-14T15:14:06.095Z,1.60
2023-04-14T15:16:34.832Z,1.60
2023-04-14T15:19:05.294Z,1.70
2023-04-14T15:21:34.300Z,1.70
2023-04-14T15:24:05.141Z,1.50
2023-04-14T15:26:33.737Z,1.50
2023-04-14T15:29:02.453Z,1.50
2023-04-14T15:31:31.292Z,1.40
2023-04-14T15:34:02.206Z,1.73
2023-04-14T15:36:32.722Z,1.67
2023-04-14T15:39:01.370Z,1.93
2023-04-14T15:41:30.002Z,1.60
2023-04-14T15:43:58.683Z,1.70
2023-04-14T15:46:27.396Z,1.90
2023-04-14T15:48:56.051Z,2.03
2023-04-14T15:51:24.673Z,1.80
2023-04-14T15:53:54.691Z,1.67
2023-04-14T15:56:23.680Z,1.97
2023-04-14T15:58:52.447Z,1.60
2023-04-14T16:01:21.195Z,1.90
2023-04-14T16:03:52.436Z,1.87
2023-04-14T16:06:21.713Z,1.90
2023-04-14T16:08:50.366Z,1.57
2023-04-14T16:11:20.640Z,1.87
2023-04-14T16:13:49.349Z,1.80
2023-04-14T16:16:18.329Z,1.70
2023-04-14T16:18:47.011Z,1.70
2023-04-14T16:21:16.542Z,1.97
2023-04-14T16:23:45.155Z,2.03
2023-04-14T16:26:13.877Z,1.80
2023-04-14T16:28:43.927Z,1.73
2023-04-14T16:31:13.014Z,2.10
2023-04-14T16:33:41.749Z,1.60
2023-04-14T16:36:11.251Z,2.20
2023-04-14T16:38:40.259Z,2.00
2023-04-14T16:41:08.926Z,2.10
2023-04-14T16:43:37.697Z,1.87
2023-04-14T16:46:08.074Z,1.80
2023-04-14T16:48:37.297Z,2.20
2023-04-14T16:51:06.797Z,2.00
2023-04-14T16:53:36.550Z,1.50
2023-04-14T16:56:06.374Z,2.00
2023-04-14T16:58:35.491Z,1.80
2023-04-14T17:01:04.732Z,1.87
2023-04-14T17:03:35.291Z,1.65
2023-04-14T17:06:04.519Z,2.20
2023-04-14T17:08:33.951Z,1.75
2023-04-14T17:11:02.602Z,2.10
2023-04-14T17:13:31.204Z,1.60
2023-04-14T17:16:08.405Z,2.10
2023-04-14T17:18:39.671Z,1.67
2023-04-14T17:21:08.287Z,1.50
2023-04-14T17:23:37.964Z,1.80
2023-04-14T17:26:07.074Z,1.73
2023-04-14T17:28:35.882Z,1.93
2023-04-14T17:31:10.868Z,1.80
2023-04-14T17:33:42.003Z,1.90
2023-04-14T17:36:12.678Z,2.30
2023-04-14T17:38:42.090Z,2.00
2023-04-14T17:41:12.746Z,1.70
2023-04-14T17:43:54.161Z,1.40
2023-04-14T17:46:33.355Z,1.40
2023-04-14T17:49:04.058Z,1.83
2023-04-14T17:51:33.263Z,1.63
2023-04-14T17:54:02.456Z,1.60
2023-04-14T17:56:31.870Z,1.90
2023-04-14T17:59:01.444Z,2.27
2023-04-14T18:01:30.133Z,2.17
2023-04-14T18:04:00.325Z,2.00
2023-04-14T18:06:34.593Z,2.00
2023-04-14T18:09:03.944Z,2.10
2023-04-14T18:11:32.731Z,2.20
2023-04-14T18:14:01.583Z,2.90
2023-04-14T18:16:31.290Z,5.17
2023-04-14T18:19:00.357Z,8.23
2023-04-14T18:21:30.875Z,9.00
2023-04-14T18:26:31.937Z,4.90
2023-04-14T18:29:01.047Z,3.70
2023-04-14T18:31:31.331Z,3.80
2023-04-14T18:34:05.053Z,3.37
2023-04-14T18:36:36.503Z,2.80
2023-04-14T18:39:05.274Z,3.03
2023-04-14T18:41:34.194Z,2.63
2023-04-14T18:44:04.458Z,2.90
2023-04-14T18:46:33.141Z,2.30
2023-04-14T18:49:02.152Z,2.27
2023-04-14T18:51:31.539Z,2.57
2023-04-14T18:54:02.220Z,2.70
2023-04-14T18:56:31.670Z,2.37
2023-04-14T18:59:00.610Z,2.30
2023-04-14T19:01:29.723Z,2.20
2023-04-14T19:03:58.841Z,2.17
2023-04-14T19:06:27.628Z,1.90
2023-04-14T19:08:56.634Z,2.53
2023-04-14T19:11:26.821Z,2.67
2023-04-14T19:13:55.543Z,2.90
2023-04-14T19:16:24.495Z,3.60
2023-04-14T19:18:53.590Z,3.33
2023-04-14T19:21:25.087Z,3.23
2023-04-14T19:23:54.616Z,2.73
2023-04-14T19:26:24.024Z,2.33
2023-04-14T19:28:57.624Z,2.50
2023-04-14T19:31:28.351Z,2.20
2023-04-14T19:33:59.754Z,3.00
2023-04-14T19:36:29.337Z,2.30
2023-04-14T19:38:58.849Z,2.57
2023-04-14T19:41:27.665Z,2.93
2023-04-14T19:43:57.739Z,3.30
2023-04-14T19:46:27.131Z,3.10
2023-04-14T19:48:55.906Z,2.47
2023-04-14T19:51:24.570Z,2.50
2023-04-14T19:53:53.151Z,3.00
2023-04-14T19:56:22.738Z,3.00
2023-04-14T19:58:51.872Z,2.60
2023-04-14T20:01:24.086Z,2.37
2023-04-14T20:04:05.230Z,2.57
2023-04-14T20:06:40.488Z,2.87
2023-04-14T20:09:09.051Z,3.27
2023-04-14T20:11:37.752Z,3.70
2023-04-14T20:14:06.465Z,3.50
2023-04-14T20:16:36.461Z,3.83
2023-04-14T20:19:05.293Z,3.60
2023-04-14T20:21:34.777Z,3.57
2023-04-14T20:24:03.984Z,3.70
2023-04-14T20:26:33.492Z,3.40
2023-04-14T20:29:02.815Z,3.50
2023-04-14T20:31:31.918Z,3.87
2023-04-14T20:34:03.405Z,3.30
2023-04-14T20:36:35.709Z,3.27
2023-04-14T20:39:05.651Z,4.03
2023-04-14T20:41:36.398Z,4.10
2023-04-14T20:44:05.519Z,4.37
2023-04-14T20:46:34.395Z,4.07
2023-04-14T20:49:04.715Z,4.50
2023-04-14T20:51:33.840Z,4.03
2023-04-14T20:54:02.740Z,4.67
2023-04-14T20:56:31.964Z,4.20
2023-04-14T20:59:01.185Z,4.00
2023-04-14T21:01:30.548Z,4.57
2023-04-14T21:03:59.293Z,4.20
2023-04-14T21:06:31.703Z,4.20
2023-04-14T21:09:01.857Z,3.57
2023-04-14T21:11:31.478Z,5.00
2023-04-14T21:15:40.441Z,4.70
2023-04-14T21:16:48.748Z,4.57
2023-04-14T21:19:17.390Z,4.67
2023-04-14T21:21:47.755Z,3.70
2023-04-14T21:24:16.395Z,4.70
2023-04-14T21:26:45.075Z,4.93
2023-04-14T21:29:14.195Z,4.73
2023-04-14T21:31:42.899Z,5.67
2023-04-14T21:34:12.034Z,4.97
2023-04-14T21:36:41.220Z,5.30
2023-04-14T21:39:11.799Z,5.10
2023-04-14T21:41:40.497Z,5.67
2023-04-14T21:44:18.536Z,4.80
2023-04-14T21:46:47.259Z,4.83
2023-04-14T21:49:16.993Z,4.80
2023-04-14T21:51:46.235Z,4.93
2023-04-14T21:54:16.356Z,4.90
2023-04-14T21:56:45.726Z,5.10
2023-04-14T21:59:14.467Z,5.03
2023-04-14T22:01:44.120Z,4.80
2023-04-14T22:04:22.145Z,5.90
2023-04-14T22:06:54.550Z,6.40
2023-04-14T22:09:24.881Z,6.20
2023-04-14T22:11:53.597Z,5.73
2023-04-14T22:14:22.731Z,5.60
2023-04-14T22:16:51.473Z,5.67
2023-04-14T22:19:20.739Z,4.93
2023-04-14T22:21:49.885Z,4.73
2023-04-14T22:24:18.600Z,4.97
2023-04-14T22:26:48.862Z,5.30
2023-04-14T22:29:17.602Z,4.93
2023-04-14T22:31:46.703Z,4.47
2023-04-14T22:34:15.283Z,4.50
2023-04-14T22:36:43.934Z,5.00
2023-04-14T22:39:12.542Z,5.63
2023-04-14T22:41:41.150Z,6.00
2023-04-14T22:44:11.138Z,6.03
2023-04-14T22:46:39.895Z,5.77
2023-04-14T22:49:08.846Z,5.23
2023-04-14T22:51:37.550Z,5.77
2023-04-14T22:54:06.640Z,5.63
2023-04-14T22:56:36.414Z,5.57
2023-04-14T22:59:05.454Z,6.00
2023-04-14T23:01:35.910Z,6.13
2023-04-14T23:04:04.641Z,6.00
2023-04-14T23:06:33.412Z,5.73
2023-04-14T23:09:02.328Z,5.10
2023-04-14T23:11:31.395Z,5.40
2023-04-14T23:14:00.115Z,4.97
2023-04-14T23:16:28.757Z,5.50
2023-04-14T23:18:58.811Z,5.37
2023-04-14T23:21:27.568Z,5.37
2023-04-14T23:23:56.172Z,5.17
2023-04-14T23:26:24.811Z,4.87
2023-04-14T23:28:53.690Z,5.17
2023-04-14T23:31:22.750Z,5.83
2023-04-14T23:33:52.921Z,5.93
2023-04-14T23:36:24.228Z,5.13
2023-04-14T23:38:53.062Z,4.47
2023-04-14T23:41:21.957Z,4.80
2023-04-14T23:43:50.655Z,4.90
2023-04-14T23:46:19.490Z,4.80
2023-04-14T23:48:49.573Z,4.50
2023-04-14T23:51:19.433Z,4.20
2023-04-14T23:53:51.439Z,4.93
2023-04-14T23:56:20.215Z,4.37
2023-04-14T23:58:48.878Z,4.87
